Time;durP1;ratioP1;P1;durP2;ratioP2;P2;SDS_P1;SDS_P2;PMS_P1;PMS_P2;Temp;Humidity;BMP_temperature;BMP_pressure;BME280_temperature;BME280_humidity;BME280_pressure;Samples;Min_cycle;Max_cycle;Signal;HPM_P1;HPM_P2
2024/01/03 00:00:00;;;;;;;;;;;12.60;99.90;;;;;;5091755;28;19969;-80
2024/01/03 00:02:26;;;;;;;;;;;12.60;99.90;;;;;;5091584;28;20328;-80
2024/01/03 00:04:52;;;;;;;;;;;12.60;99.90;;;;;;5091350;28;19938;-80
2024/01/03 00:07:18;;;;;;;;;;;12.60;99.90;;;;;;5091396;28;20295;-80
2024/01/03 00:09:44;;;;;;;;;;;12.60;99.90;;;;;;5091759;28;19912;-81
2024/01/03 00:12:10;;;;;;;;;;;12.60;99.90;;;;;;5091426;28;19950;-79
2024/01/03 00:14:37;;;;;;;;;;;12.50;99.90;;;;;;5091176;28;19950;-80
2024/01/03 00:17:07;;;;;;;;;;;12.50;99.90;;;;;;5091626;28;19908;-81
2024/01/03 00:19:34;;;;;;;;;;;12.50;99.90;;;;;;5091313;28;19958;-81
2024/01/03 00:22:00;;;;;;;;;;;12.60;99.90;;;;;;5091177;28;20344;-81
2024/01/03 00:24:26;;;;;;;;;;;12.50;99.90;;;;;;5091386;28;19912;-81
2024/01/03 00:26:52;;;;;;;;;;;12.50;99.90;;;;;;5090808;28;19908;-81
2024/01/03 00:29:24;;;;;;;;;;;12.50;99.90;;;;;;5091483;28;19924;-79
2024/01/03 00:31:50;;;;;;;;;;;12.50;99.90;;;;;;5091063;28;19960;-80
2024/01/03 00:34:16;;;;;;;;;;;12.50;99.90;;;;;;5090882;28;20011;-80
2024/01/03 00:36:42;;;;;;;;;;;12.50;99.90;;;;;;5090757;28;20097;-80
2024/01/03 00:39:08;;;;;;;;;;;12.50;99.90;;;;;;5091327;28;20356;-80
2024/01/03 00:41:34;;;;;;;;;;;12.50;99.90;;;;;;5091309;28;19928;-80
2024/01/03 00:44:00;;;;;;;;;;;12.50;99.90;;;;;;5090685;28;19977;-80
2024/01/03 00:46:26;;;;;;;;;;;12.50;99.90;;;;;;5091193;28;19958;-80
2024/01/03 00:48:55;;;;;;;;;;;12.50;99.90;;;;;;5090858;28;19994;-80
2024/01/03 00:51:21;;;;;;;;;;;12.40;99.90;;;;;;5090780;28;19919;-81
2024/01/03 00:53:46;;;;;;;;;;;12.40;99.90;;;;;;5090688;28;19969;-79
2024/01/03 00:56:12;;;;;;;;;;;12.50;99.90;;;;;;5090748;28;19909;-80
2024/01/03 00:58:38;;;;;;;;;;;12.40;99.90;;;;;;5089559;28;19912;-80
2024/01/03 01:01:04;;;;;;;;;;;12.40;99.90;;;;;;5089327;28;19938;-80
2024/01/03 01:03:30;;;;;;;;;;;12.30;99.90;;;;;;5089702;28;19989;-81
2024/01/03 01:05:56;;;;;;;;;;;12.30;99.90;;;;;;5088566;28;19915;-81
2024/01/03 01:08:22;;;;;;;;;;;12.30;99.90;;;;;;5088527;28;20002;-80
2024/01/03 01:10:48;;;;;;;;;;;12.30;99.90;;;;;;5088696;28;20395;-81
2024/01/03 01:13:14;;;;;;;;;;;12.20;99.90;;;;;;5090319;28;19916;-81
2024/01/03 01:15:40;;;;;;;;;;;12.20;99.90;;;;;;5090148;28;20007;-81
2024/01/03 01:18:05;;;;;;;;;;;12.20;99.90;;;;;;5089242;28;20012;-81
2024/01/03 01:20:31;;;;;;;;;;;12.20;99.90;;;;;;5090067;28;20395;-80
2024/01/03 01:22:57;;;;;;;;;;;12.20;99.90;;;;;;5089847;28;20019;-81
2024/01/03 01:25:23;;;;;;;;;;;12.20;99.90;;;;;;5090084;28;19947;-80
2024/01/03 01:27:49;;;;;;;;;;;12.20;99.90;;;;;;5089864;28;19908;-80
2024/01/03 01:30:14;;;;;;;;;;;12.20;99.90;;;;;;5090300;28;19912;-81
2024/01/03 01:32:40;;;;;;;;;;;12.20;99.90;;;;;;5090393;28;19934;-81
2024/01/03 01:35:06;;;;;;;;;;;12.10;99.90;;;;;;5090030;28;20007;-81
2024/01/03 01:37:32;;;;;;;;;;;12.10;99.90;;;;;;5087968;28;19920;-81
2024/01/03 01:39:58;;;;;;;;;;;12.00;99.90;;;;;;5091945;28;20257;-79
2024/01/03 01:42:25;;;;;;;;;;;12.00;99.90;;;;;;5093151;28;19947;-79
2024/01/03 01:44:51;;;;;;;;;;;11.90;99.90;;;;;;5093314;28;19908;-80
2024/01/03 01:47:17;;;;;;;;;;;11.90;99.90;;;;;;5093000;28;19998;-81
2024/01/03 01:49:42;;;;;;;;;;;11.80;99.90;;;;;;5093629;28;19947;-80
2024/01/03 01:52:13;;;;;;;;;;;11.80;99.90;;;;;;5091485;28;19973;-81
2024/01/03 01:54:40;;;;;;;;;;;11.80;99.90;;;;;;5091669;28;20013;-80
2024/01/03 01:57:06;;;;;;;;;;;11.80;99.90;;;;;;5093431;28;20240;-81
2024/01/03 01:59:32;;;;;;;;;;;11.80;99.90;;;;;;5092809;28;19908;-81
2024/01/03 02:01:58;;;;;;;;;;;11.80;99.90;;;;;;5091198;28;20003;-81
2024/01/03 02:04:24;;;;;;;;;;;11.90;99.90;;;;;;5091066;28;19912;-82
2024/01/03 02:06:50;;;;;;;;;;;11.90;99.90;;;;;;5092667;28;19973;-80
2024/01/03 02:09:16;;;;;;;;;;;11.90;99.90;;;;;;5092922;28;19912;-81
2024/01/03 02:11:45;;;;;;;;;;;12.00;99.90;;;;;;5092510;28;19916;-81
2024/01/03 02:14:11;;;;;;;;;;;12.00;99.90;;;;;;5092487;28;19916;-81
2024/01/03 02:16:37;;;;;;;;;;;12.00;99.90;;;;;;5090974;28;19952;-81
2024/01/03 02:19:04;;;;;;;;;;;12.00;99.90;;;;;;5090765;28;19931;-81
2024/01/03 02:21:30;;;;;;;;;;;12.00;99.90;;;;;;5092280;28;19994;-81
2024/01/03 02:23:56;;;;;;;;;;;12.00;99.90;;;;;;5092687;28;19954;-81
2024/01/03 02:26:22;;;;;;;;;;;12.00;99.90;;;;;;5092344;28;19912;-81
2024/01/03 02:28:48;;;;;;;;;;;12.00;99.90;;;;;;5092302;28;20348;-80
2024/01/03 02:31:13;;;;;;;;;;;12.00;99.90;;;;;;5092295;28;19908;-80
2024/01/03 02:33:39;;;;;;;;;;;12.00;99.90;;;;;;5092254;28;19965;-82
2024/01/03 02:36:05;;;;;;;;;;;12.00;99.90;;;;;;5092453;28;19931;-80
2024/01/03 02:38:31;;;;;;;;;;;12.00;99.90;;;;;;5091994;28;19920;-80
2024/01/03 02:40:57;;;;;;;;;;;11.90;99.90;;;;;;5092332;28;20206;-80
2024/01/03 02:43:23;;;;;;;;;;;11.90;99.90;;;;;;5092072;28;19931;-80
2024/01/03 02:45:49;;;;;;;;;;;11.90;99.90;;;;;;5092076;28;19909;-75
2024/01/03 02:48:15;;;;;;;;;;;11.90;99.90;;;;;;5090319;28;20013;-80
2024/01/03 02:50:44;;;;;;;;;;;11.90;99.90;;;;;;5091325;28;19994;-80
2024/01/03 02:53:10;;;;;;;;;;;12.00;99.90;;;;;;5091894;28;19930;-81
2024/01/03 02:55:36;;;;;;;;;;;11.90;99.90;;;;;;5091698;28;19912;-80
2024/01/03 02:58:02;;;;;;;;;;;11.90;99.90;;;;;;5091170;28;19918;-80
2024/01/03 03:00:28;;;;;;;;;;;11.90;99.90;;;;;;5091827;28;19995;-80
2024/01/03 03:02:53;;;;;;;;;;;12.00;99.90;;;;;;5091698;28;20297;-80
2024/01/03 03:05:19;;;;;;;;;;;11.90;99.90;;;;;;5089843;28;19919;-80
2024/01/03 03:07:45;;;;;;;;;;;11.80;99.90;;;;;;5091292;28;20323;-80
2024/01/03 03:10:14;;;;;;;;;;;11.80;99.90;;;;;;5091481;28;19908;-80
2024/01/03 03:12:40;;;;;;;;;;;11.70;99.90;;;;;;5091222;28;19908;-81
2024/01/03 03:15:06;;;;;;;;;;;11.70;99.90;;;;;;5089572;28;19931;-80
2024/01/03 03:17:32;;;;;;;;;;;11.70;99.90;;;;;;5089741;28;20012;-80
2024/01/03 03:19:58;;;;;;;;;;;11.80;99.90;;;;;;5091204;28;19930;-80
2024/01/03 03:22:23;;;;;;;;;;;11.70;99.90;;;;;;5090891;28;19908;-80
2024/01/03 03:24:49;;;;;;;;;;;11.70;99.90;;;;;;5091103;28;19931;-80
2024/01/03 03:27:15;;;;;;;;;;;11.70;99.90;;;;;;5091129;28;20007;-78
2024/01/03 03:29:41;;;;;;;;;;;11.70;99.90;;;;;;5090980;28;19987;-81
2024/01/03 03:32:07;;;;;;;;;;;11.70;99.90;;;;;;5090992;28;20082;-81
2024/01/03 03:34:33;;;;;;;;;;;11.70;99.90;;;;;;5091008;28;19970;-82
2024/01/03 03:37:00;;;;;;;;;;;11.70;99.90;;;;;;5090521;28;19935;-81
2024/01/03 03:39:26;;;;;;;;;;;11.80;99.90;;;;;;5090401;28;19969;-80
2024/01/03 03:41:51;;;;;;;;;;;11.80;99.90;;;;;;5090509;28;19908;-80
2024/01/03 03:44:17;;;;;;;;;;;11.80;99.90;;;;;;5090275;28;19966;-80
2024/01/03 03:46:43;;;;;;;;;;;11.80;99.90;;;;;;5090623;28;20349;-81
2024/01/03 03:49:09;;;;;;;;;;;11.90;99.90;;;;;;5089045;28;19912;-81
2024/01/03 03:51:34;;;;;;;;;;;11.80;99.90;;;;;;5089538;28;19908;-81
2024/01/03 03:54:00;;;;;;;;;;;11.80;99.90;;;;;;5090577;28;19923;-81
2024/01/03 03:56:28;;;;;;;;;;;11.70;99.90;;;;;;5090628;28;19908;-82
2024/01/03 03:58:55;;;;;;;;;;;11.70;99.90;;;;;;5090875;28;20259;-82
2024/01/03 04:01:20;;;;;;;;;;;11.70;99.90;;;;;;5090345;28;19908;-81
2024/01/03 04:03:46;;;;;;;;;;;11.70;99.90;;;;;;5090902;28;19994;-82
2024/01/03 04:06:13;;;;;;;;;;;11.70;99.90;;;;;;5091222;28;19908;-82
2024/01/03 04:08:43;;;;;;;;;;;11.70;99.90;;;;;;5091953;28;19955;-80
2024/01/03 04:11:10;;;;;;;;;;;11.80;99.90;;;;;;5091544;28;20028;-81
2024/01/03 04:13:36;;;;;;;;;;;11.80;99.90;;;;;;5091509;28;19916;-82
2024/01/03 04:16:05;;;;;;;;;;;11.80;99.90;;;;;;5091416;28;20363;-82
2024/01/03 04:18:33;;;;;;;;;;;11.80;99.90;;;;;;5091425;28;19947;-81
2024/01/03 04:20:58;;;;;;;;;;;11.80;99.90;;;;;;5091181;28;20370;-82
2024/01/03 04:23:24;;;;;;;;;;;11.90;99.90;;;;;;5091561;28;19959;-82
2024/01/03 04:25:50;;;;;;;;;;;11.80;99.90;;;;;;5092235;28;20002;-82
2024/01/03 04:28:16;;;;;;;;;;;11.80;99.90;;;;;;5092098;28;20383;-81
2024/01/03 04:30:42;;;;;;;;;;;11.90;99.90;;;;;;5092343;28;19908;-82
2024/01/03 04:33:08;;;;;;;;;;;11.90;99.90;;;;;;5091961;28;19912;-82
2024/01/03 04:35:33;;;;;;;;;;;11.90;99.90;;;;;;5092007;28;20325;-82
2024/01/03 04:38:02;;;;;;;;;;;11.90;99.90;;;;;;5091561;28;20014;-82
2024/01/03 04:40:33;;;;;;;;;;;11.90;99.90;;;;;;5092204;28;19911;-82
2024/01/03 04:42:59;;;;;;;;;;;12.00;99.90;;;;;;5091812;28;19912;-82
2024/01/03 04:45:25;;;;;;;;;;;11.90;99.90;;;;;;5092015;28;19909;-81
2024/01/03 04:47:51;;;;;;;;;;;12.00;99.90;;;;;;5091907;28;19908;-81
2024/01/03 04:50:20;;;;;;;;;;;11.90;99.90;;;;;;5092161;28;19912;-82
2024/01/03 04:52:46;;;;;;;;;;;11.90;99.90;;;;;;5092486;28;19912;-81
2024/01/03 04:55:12;;;;;;;;;;;11.90;99.90;;;;;;5093064;28;19919;-81
2024/01/03 04:57:38;;;;;;;;;;;11.90;99.90;;;;;;5092880;28;19908;-82
2024/01/03 05:00:04;;;;;;;;;;;11.90;99.90;;;;;;5093795;28;19908;-82
2024/01/03 05:02:30;;;;;;;;;;;12.00;99.90;;;;;;5091363;28;20299;-81
2024/01/03 05:04:56;;;;;;;;;;;12.00;99.90;;;;;;5092577;28;19909;-81
2024/01/03 05:07:24;;;;;;;;;;;11.90;99.90;;;;;;5093426;28;20347;-79
2024/01/03 05:09:49;;;;;;;;;;;12.00;99.90;;;;;;5093270;28;20324;-80
2024/01/03 05:12:15;;;;;;;;;;;12.00;99.90;;;;;;5091327;28;19937;-79
2024/01/03 05:14:41;;;;;;;;;;;12.00;99.90;;;;;;5096256;28;19924;-81
2024/01/03 05:17:07;;;;;;;;;;;12.10;99.90;;;;;;5095204;28;19908;-82
2024/01/03 05:19:33;;;;;;;;;;;12.10;99.90;;;;;;5097520;28;19908;-81
2024/01/03 05:21:58;;;;;;;;;;;12.10;99.90;;;;;;5096737;28;19912;-81
2024/01/03 05:24:24;;;;;;;;;;;12.10;99.90;;;;;;5097372;28;19908;-81
2024/01/03 05:26:50;;;;;;;;;;;12.00;99.90;;;;;;5097092;28;19915;-81
2024/01/03 05:29:16;;;;;;;;;;;12.10;99.90;;;;;;5095332;28;19916;-82
2024/01/03 05:31:42;;;;;;;;;;;12.10;99.90;;;;;;5097205;28;19916;-81
2024/01/03 05:34:09;;;;;;;;;;;12.10;99.90;;;;;;5095242;28;20336;-82
2024/01/03 05:36:34;;;;;;;;;;;12.10;99.90;;;;;;5096127;28;19912;-81
2024/01/03 05:39:00;;;;;;;;;;;12.20;99.90;;;;;;5096516;28;19912;-81
2024/01/03 05:41:26;;;;;;;;;;;12.20;99.90;;;;;;5096483;28;19915;-81
2024/01/03 05:43:54;;;;;;;;;;;12.30;99.90;;;;;;5096902;28;19908;-82
2024/01/03 05:46:20;;;;;;;;;;;12.30;99.90;;;;;;5096320;28;19908;-81
2024/01/03 05:48:46;;;;;;;;;;;12.30;99.90;;;;;;5096575;28;19915;-82
2024/01/03 05:51:12;;;;;;;;;;;12.30;99.90;;;;;;5096449;28;19934;-81
2024/01/03 05:53:39;;;;;;;;;;;12.40;99.90;;;;;;5094723;28;19952;-81
2024/01/03 05:56:05;;;;;;;;;;;12.40;99.90;;;;;;5096032;28;19998;-82
2024/01/03 05:58:30;;;;;;;;;;;12.40;99.90;;;;;;5096203;28;20272;-82
2024/01/03 06:00:56;;;;;;;;;;;12.40;99.90;;;;;;5096188;28;19908;-81
2024/01/03 06:03:22;;;;;;;;;;;12.40;99.90;;;;;;5095128;28;19908;-81
2024/01/03 06:05:48;;;;;;;;;;;12.40;99.90;;;;;;5094389;28;19908;-80
2024/01/03 06:08:13;;;;;;;;;;;12.40;99.90;;;;;;5096260;28;20343;-80
2024/01/03 06:10:39;;;;;;;;;;;12.40;99.90;;;;;;5094267;28;19961;-81
2024/01/03 06:13:05;;;;;;;;;;;12.40;99.90;;;;;;5094254;28;19985;-81
2024/01/03 06:15:31;;;;;;;;;;;12.40;99.90;;;;;;5095768;28;20336;-81
2024/01/03 06:17:57;;;;;;;;;;;12.40;99.90;;;;;;5095506;28;19908;-81
2024/01/03 06:20:23;;;;;;;;;;;12.40;99.90;;;;;;5095932;28;19973;-81
2024/01/03 06:22:48;;;;;;;;;;;12.50;99.90;;;;;;5094329;28;19912;-82
2024/01/03 06:25:14;;;;;;;;;;;12.60;99.90;;;;;;5095462;28;19909;-81
2024/01/03 06:27:40;;;;;;;;;;;12.60;99.90;;;;;;5094867;28;20431;-81
2024/01/03 06:30:06;;;;;;;;;;;12.60;99.90;;;;;;5094663;28;19908;-82
2024/01/03 06:32:32;;;;;;;;;;;12.60;99.90;;;;;;5094588;28;20390;-82
2024/01/03 06:34:58;;;;;;;;;;;12.70;99.90;;;;;;5093096;28;19917;-82
2024/01/03 06:37:23;;;;;;;;;;;12.70;99.90;;;;;;5094171;28;19957;-81
2024/01/03 06:39:49;;;;;;;;;;;12.70;99.90;;;;;;5094052;28;19920;-81
2024/01/03 06:42:15;;;;;;;;;;;12.70;99.90;;;;;;5093004;28;19908;-82
2024/01/03 06:44:41;;;;;;;;;;;12.70;99.90;;;;;;5094446;28;20276;-82
2024/01/03 06:47:06;;;;;;;;;;;12.80;99.90;;;;;;5094223;28;19977;-82
2024/01/03 06:49:32;;;;;;;;;;;12.90;99.90;;;;;;5093509;28;19908;-82
2024/01/03 06:51:58;;;;;;;;;;;13.00;99.90;;;;;;5093405;28;19912;-82
2024/01/03 06:54:24;;;;;;;;;;;13.10;99.90;;;;;;5093456;28;19985;-81
2024/01/03 06:56:50;;;;;;;;;;;13.20;99.90;;;;;;5093581;28;19908;-81
2024/01/03 06:59:15;;;;;;;;;;;13.20;99.90;;;;;;5091781;28;19908;-82
2024/01/03 07:01:41;;;;;;;;;;;13.40;99.90;;;;;;5093439;28;20274;-82
2024/01/03 07:04:07;;;;;;;;;;;13.40;99.90;;;;;;5093335;28;19918;-82
2024/01/03 07:06:33;;;;;;;;;;;13.60;99.90;;;;;;5092926;28;19908;-81
2024/01/03 07:08:59;;;;;;;;;;;13.60;99.90;;;;;;5093120;28;19928;-81
2024/01/03 07:11:24;;;;;;;;;;;13.70;99.90;;;;;;5093692;28;19912;-81
2024/01/03 07:13:50;;;;;;;;;;;13.70;99.90;;;;;;5092910;28;19916;-81
2024/01/03 07:16:16;;;;;;;;;;;13.70;99.90;;;;;;5092901;28;20408;-82
2024/01/03 07:18:42;;;;;;;;;;;13.80;99.90;;;;;;5094253;28;19962;-81
2024/01/03 07:21:08;;;;;;;;;;;13.80;99.90;;;;;;5093580;28;19912;-82
2024/01/03 07:23:34;;;;;;;;;;;13.90;99.90;;;;;;5093339;28;19931;-81
2024/01/03 07:26:00;;;;;;;;;;;13.90;99.90;;;;;;5092100;28;19923;-81
2024/01/03 07:28:25;;;;;;;;;;;14.00;99.90;;;;;;5093417;28;19908;-81
2024/01/03 07:30:51;;;;;;;;;;;14.00;99.90;;;;;;5093651;28;20306;-81
2024/01/03 07:33:17;;;;;;;;;;;14.00;99.90;;;;;;5093574;28;20011;-76
2024/01/03 07:35:43;;;;;;;;;;;14.10;99.90;;;;;;5093581;28;19908;-81
2024/01/03 07:38:09;;;;;;;;;;;14.10;99.90;;;;;;5092163;28;19950;-82
2024/01/03 07:40:35;;;;;;;;;;;14.20;99.90;;;;;;5092370;28;19931;-80
2024/01/03 07:43:01;;;;;;;;;;;14.40;99.90;;;;;;5092591;28;19908;-81
2024/01/03 07:45:27;;;;;;;;;;;14.50;99.90;;;;;;5092027;28;19933;-81
2024/01/03 07:47:53;;;;;;;;;;;14.80;99.90;;;;;;5093846;28;20008;-81
2024/01/03 07:50:19;;;;;;;;;;;15.20;99.90;;;;;;5093623;28;20436;-80
2024/01/03 07:52:44;;;;;;;;;;;15.40;99.90;;;;;;5091554;28;19916;-81
2024/01/03 07:55:10;;;;;;;;;;;15.50;99.90;;;;;;5093749;28;19937;-81
2024/01/03 07:57:36;;;;;;;;;;;15.80;99.90;;;;;;5091655;28;19995;-81
2024/01/03 08:00:03;;;;;;;;;;;16.10;99.90;;;;;;5093106;28;19947;-82
2024/01/03 08:02:29;;;;;;;;;;;16.10;99.90;;;;;;5091625;28;19956;-82
2024/01/03 08:04:54;;;;;;;;;;;16.20;99.90;;;;;;5092005;28;20233;-81
2024/01/03 08:07:20;;;;;;;;;;;16.50;99.90;;;;;;5092913;28;19914;-81
2024/01/03 08:09:47;;;;;;;;;;;16.70;99.90;;;;;;5092984;28;20015;-81
2024/01/03 08:12:13;;;;;;;;;;;16.50;99.90;;;;;;5091836;28;19908;-82
2024/01/03 08:14:38;;;;;;;;;;;16.60;99.90;;;;;;5092860;28;20425;-81
2024/01/03 08:17:04;;;;;;;;;;;16.60;99.90;;;;;;5093034;28;19934;-80
2024/01/03 08:19:30;;;;;;;;;;;16.60;99.90;;;;;;5092775;28;19961;-80
2024/01/03 08:21:56;;;;;;;;;;;16.80;99.90;;;;;;5092644;28;19909;-80
2024/01/03 08:24:22;;;;;;;;;;;17.00;99.90;;;;;;5092808;28;19929;-81
2024/01/03 08:26:49;;;;;;;;;;;17.10;99.90;;;;;;5092743;28;19972;-81
2024/01/03 08:29:15;;;;;;;;;;;16.90;99.90;;;;;;5092877;28;20013;-82
2024/01/03 08:31:40;;;;;;;;;;;16.90;99.90;;;;;;5091469;28;19908;-83
2024/01/03 08:34:06;;;;;;;;;;;16.80;99.90;;;;;;5092521;28;19923;-82
2024/01/03 08:36:39;;;;;;;;;;;16.80;99.90;;;;;;5092753;28;20268;-82
2024/01/03 08:39:05;;;;;;;;;;;17.00;99.90;;;;;;5093161;28;20333;-83
2024/01/03 08:41:31;;;;;;;;;;;17.30;99.90;;;;;;5092615;28;19909;-83
2024/01/03 08:43:57;;;;;;;;;;;17.40;99.90;;;;;;5092696;28;19969;-82
2024/01/03 08:46:28;;;;;;;;;;;17.60;99.90;;;;;;5092750;28;19919;-83
2024/01/03 08:48:54;;;;;;;;;;;17.70;99.90;;;;;;5092862;28;19988;-83
2024/01/03 08:51:20;;;;;;;;;;;17.60;99.90;;;;;;5094051;28;19908;-83
2024/01/03 08:53:46;;;;;;;;;;;17.60;99.90;;;;;;5095941;28;20261;-82
2024/01/03 08:56:13;;;;;;;;;;;17.70;99.90;;;;;;5095475;28;19909;-82
2024/01/03 08:58:39;;;;;;;;;;;17.70;99.90;;;;;;5095664;28;20290;-82
2024/01/03 09:01:05;;;;;;;;;;;17.60;99.90;;;;;;5095752;28;19955;-82
2024/01/03 09:03:30;;;;;;;;;;;17.60;99.90;;;;;;5094984;28;19955;-82
2024/01/03 09:05:56;;;;;;;;;;;17.70;99.90;;;;;;5095381;28;19958;-81
2024/01/03 09:08:22;;;;;;;;;;;17.70;99.90;;;;;;5095587;28;20406;-82
2024/01/03 09:10:48;;;;;;;;;;;17.80;99.90;;;;;;5095496;28;19951;-81
2024/01/03 09:13:14;;;;;;;;;;;17.80;99.90;;;;;;5094669;28;20010;-82
2024/01/03 09:15:40;;;;;;;;;;;17.70;99.90;;;;;;5095595;28;19923;-82
2024/01/03 09:18:06;;;;;;;;;;;17.90;99.90;;;;;;5096149;28;19908;-80
2024/01/03 09:20:31;;;;;;;;;;;18.00;99.90;;;;;;5095795;28;19942;-81
2024/01/03 09:22:58;;;;;;;;;;;18.20;99.90;;;;;;5095549;28;19908;-83
2024/01/03 09:25:24;;;;;;;;;;;18.20;99.90;;;;;;5095893;28;19912;-83
2024/01/03 09:27:50;;;;;;;;;;;18.30;99.90;;;;;;5094564;28;20256;-84
2024/01/03 09:30:19;;;;;;;;;;;18.50;99.90;;;;;;5095660;28;19954;-84
2024/01/03 09:32:51;;;;;;;;;;;18.60;99.90;;;;;;5095078;28;20449;-83
2024/01/03 09:35:16;;;;;;;;;;;18.80;99.90;;;;;;5093439;28;19916;-82
2024/01/03 09:37:43;;;;;;;;;;;18.80;99.90;;;;;;5092936;28;20316;-83
2024/01/03 09:40:10;;;;;;;;;;;18.80;99.90;;;;;;5095045;28;20015;-84
2024/01/03 09:42:37;;;;;;;;;;;18.60;99.90;;;;;;5093689;28;19912;-82
2024/01/03 09:45:03;;;;;;;;;;;18.70;99.90;;;;;;5095152;28;19909;-83
2024/01/03 09:47:28;;;;;;;;;;;18.70;99.90;;;;;;5093564;28;19974;-83
2024/01/03 09:49:54;;;;;;;;;;;18.60;99.90;;;;;;5094658;28;20028;-84
2024/01/03 09:52:22;;;;;;;;;;;18.60;99.90;;;;;;5094512;28;19927;-82
2024/01/03 09:54:48;;;;;;;;;;;18.70;99.90;;;;;;5095539;28;19926;-85
2024/01/03 09:57:14;;;;;;;;;;;18.80;99.90;;;;;;5096067;28;20002;-83
2024/01/03 09:59:40;;;;;;;;;;;18.70;99.90;;;;;;5089804;28;20395;-81
2024/01/03 10:02:06;;;;;;;;;;;18.40;99.90;;;;;;5075020;28;20376;-80
2024/01/03 10:04:33;;;;;;;;;;;18.40;99.90;;;;;;5086817;28;19908;-80
2024/01/03 10:06:59;;;;;;;;;;;18.40;99.90;;;;;;5093839;28;20264;-80
2024/01/03 10:09:25;;;;;;;;;;;18.40;99.90;;;;;;5095815;28;20397;-81
2024/01/03 10:11:53;;;;;;;;;;;18.30;99.90;;;;;;5095534;28;20003;-81
2024/01/03 10:14:24;;;;;;;;;;;18.30;99.90;;;;;;5097500;28;20074;-81
2024/01/03 10:16:50;;;;;;;;;;;18.40;99.90;;;;;;5095527;28;19912;-80
2024/01/03 10:19:17;;;;;;;;;;;18.50;99.90;;;;;;5095265;28;19915;-81
2024/01/03 10:21:52;;;;;;;;;;;18.50;99.90;;;;;;5095308;28;19937;-82
2024/01/03 10:24:19;;;;;;;;;;;18.70;99.90;;;;;;5095102;28;19908;-80
2024/01/03 10:26:45;;;;;;;;;;;18.80;99.90;;;;;;5095513;28;19909;-82
2024/01/03 10:29:15;;;;;;;;;;;18.90;99.90;;;;;;5095016;28;19938;-80
2024/01/03 10:31:41;;;;;;;;;;;18.90;99.90;;;;;;5095297;28;19908;-80
2024/01/03 10:34:12;;;;;;;;;;;19.00;99.90;;;;;;5094427;28;19922;-80
2024/01/03 10:36:39;;;;;;;;;;;19.10;99.90;;;;;;5093926;28;19909;-80
2024/01/03 10:39:05;;;;;;;;;;;19.20;99.90;;;;;;5094931;28;19916;-80
2024/01/03 10:41:32;;;;;;;;;;;18.90;99.90;;;;;;5094292;28;19908;-81
2024/01/03 10:44:02;;;;;;;;;;;19.10;99.90;;;;;;5094537;28;19908;-81
2024/01/03 10:46:30;;;;;;;;;;;19.40;99.90;;;;;;5094573;28;19985;-81
2024/01/03 10:48:56;;;;;;;;;;;19.60;99.90;;;;;;5094513;28;19916;-81
2024/01/03 10:51:27;;;;;;;;;;;19.50;99.90;;;;;;5094215;28;20006;-80
2024/01/03 10:53:54;;;;;;;;;;;19.30;99.90;;;;;;5094349;28;19999;-81
2024/01/03 10:56:20;;;;;;;;;;;19.30;99.90;;;;;;5094380;28;20431;-80
2024/01/03 10:58:46;;;;;;;;;;;19.10;99.90;;;;;;5093832;28;20374;-82
2024/01/03 11:01:16;;;;;;;;;;;18.80;99.90;;;;;;5094186;28;19908;-81
2024/01/03 11:03:57;;;;;;;;;;;18.60;99.90;;;;;;5092347;28;19908;-81
2024/01/03 11:06:45;;;;;;;;;;;18.50;99.90;;;;;;5092960;28;19995;-81
2024/01/03 11:09:10;;;;;;;;;;;18.80;99.90;;;;;;5094077;28;19915;-82
2024/01/03 11:11:38;;;;;;;;;;;18.80;99.90;;;;;;5093346;28;19909;-81
2024/01/03 11:14:19;;;;;;;;;;;18.90;99.90;;;;;;5093405;28;19913;-81
2024/01/03 11:16:45;;;;;;;;;;;19.10;99.90;;;;;;5094271;28;19915;-80
2024/01/03 11:19:11;;;;;;;;;;;19.30;99.90;;;;;;5094036;28;19915;-80
2024/01/03 11:21:41;;;;;;;;;;;19.40;99.90;;;;;;5093895;28;20280;-80
2024/01/03 11:24:31;;;;;;;;;;;19.20;99.90;;;;;;5093378;28;20062;-80
2024/01/03 11:27:06;;;;;;;;;;;19.30;99.90;;;;;;5094064;28;19908;-81
2024/01/03 11:29:39;;;;;;;;;;;19.40;99.90;;;;;;5092358;28;19920;-80
2024/01/03 11:32:04;;;;;;;;;;;19.60;99.90;;;;;;5094104;28;19912;-80
2024/01/03 11:34:37;;;;;;;;;;;19.70;99.90;;;;;;5094018;28;19920;-80
2024/01/03 11:37:06;;;;;;;;;;;19.70;99.90;;;;;;5093410;28;20053;-82
2024/01/03 11:39:43;;;;;;;;;;;19.70;99.90;;;;;;5094473;28;19919;-83
2024/01/03 11:42:09;;;;;;;;;;;19.60;99.90;;;;;;5094154;28;19911;-82
2024/01/03 11:44:35;;;;;;;;;;;20.00;99.90;;;;;;5094213;28;19908;-81
2024/01/03 11:47:02;;;;;;;;;;;20.20;99.90;;;;;;5093898;28;20000;-82
2024/01/03 11:49:28;;;;;;;;;;;20.20;99.90;;;;;;5093380;28;19908;-82
2024/01/03 11:51:55;;;;;;;;;;;20.10;99.90;;;;;;5093606;28;19908;-84
2024/01/03 11:54:21;;;;;;;;;;;20.10;99.90;;;;;;5093407;28;19916;-84
2024/01/03 11:56:46;;;;;;;;;;;20.20;99.90;;;;;;5091752;28;19913;-81
2024/01/03 11:59:12;;;;;;;;;;;20.20;99.90;;;;;;5093467;28;19908;-82
2024/01/03 12:01:38;;;;;;;;;;;20.30;99.90;;;;;;5093892;28;19908;-80
2024/01/03 12:04:11;;;;;;;;;;;20.30;99.90;;;;;;5093274;28;20351;-81
2024/01/03 12:06:37;;;;;;;;;;;20.30;99.90;;;;;;5093291;28;19912;-83
2024/01/03 12:09:05;;;;;;;;;;;20.20;99.90;;;;;;5093455;28;19908;-83
2024/01/03 12:11:32;;;;;;;;;;;20.20;99.90;;;;;;5093388;28;19915;-82
2024/01/03 12:14:01;;;;;;;;;;;20.20;99.90;;;;;;5092917;28;20261;-83
2024/01/03 12:16:27;;;;;;;;;;;20.10;99.90;;;;;;5093744;28;19935;-82
2024/01/03 12:18:53;;;;;;;;;;;20.10;99.90;;;;;;5092405;28;19954;-81
2024/01/03 12:21:19;;;;;;;;;;;20.30;99.90;;;;;;5093546;28;20435;-81
2024/01/03 12:23:55;;;;;;;;;;;20.50;99.90;;;;;;5091349;28;20042;-81
2024/01/03 12:26:21;;;;;;;;;;;20.60;99.90;;;;;;5091879;28;19916;-80
2024/01/03 12:28:53;;;;;;;;;;;20.60;99.90;;;;;;5093339;28;19912;-81
2024/01/03 12:31:20;;;;;;;;;;;20.60;99.90;;;;;;5091833;28;19915;-81
2024/01/03 12:33:49;;;;;;;;;;;20.50;99.90;;;;;;5093368;28;20344;-81
2024/01/03 12:36:14;;;;;;;;;;;20.50;99.90;;;;;;5093752;28;19919;-82
2024/01/03 12:38:41;;;;;;;;;;;20.50;99.90;;;;;;5093211;28;19923;-80
2024/01/03 12:41:07;;;;;;;;;;;20.60;99.90;;;;;;5093979;28;20213;-81
2024/01/03 12:43:36;;;;;;;;;;;20.50;99.90;;;;;;5093502;28;19930;-77
2024/01/03 12:46:04;;;;;;;;;;;20.40;99.90;;;;;;5093578;28;19908;-80
2024/01/03 12:48:30;;;;;;;;;;;20.50;99.90;;;;;;5093331;28;19919;-80
2024/01/03 12:50:56;;;;;;;;;;;20.60;99.90;;;;;;5093226;28;19908;-80
2024/01/03 12:53:21;;;;;;;;;;;20.40;99.90;;;;;;5091865;28;20421;-81
2024/01/03 12:55:47;;;;;;;;;;;20.30;99.90;;;;;;5093151;28;19912;-81
2024/01/03 12:58:13;;;;;;;;;;;20.30;99.90;;;;;;5093492;28;20271;-81
2024/01/03 13:00:39;;;;;;;;;;;20.50;99.90;;;;;;5093204;28;19908;-81
2024/01/03 13:03:05;;;;;;;;;;;20.50;99.90;;;;;;5093602;28;20008;-81
2024/01/03 13:05:31;;;;;;;;;;;20.60;99.90;;;;;;5093117;28;19908;-81
2024/01/03 13:07:57;;;;;;;;;;;20.30;99.90;;;;;;5091324;28;19908;-81
2024/01/03 13:10:23;;;;;;;;;;;20.20;99.90;;;;;;5093461;28;19966;-81
2024/01/03 13:12:49;;;;;;;;;;;20.10;99.90;;;;;;5092776;28;19930;-81
2024/01/03 13:15:16;;;;;;;;;;;19.70;99.90;;;;;;5092728;28;19916;-81
2024/01/03 13:17:41;;;;;;;;;;;19.70;99.90;;;;;;5092715;28;20015;-81
2024/01/03 13:20:08;;;;;;;;;;;19.40;99.90;;;;;;5093080;28;19915;-82
2024/01/03 13:22:34;;;;;;;;;;;19.40;99.90;;;;;;5095058;28;19915;-81
2024/01/03 13:24:59;;;;;;;;;;;19.20;99.90;;;;;;5093040;28;19908;-80
2024/01/03 13:27:25;;;;;;;;;;;19.10;99.90;;;;;;5093419;28;19930;-81
2024/01/03 13:29:51;;;;;;;;;;;19.10;99.90;;;;;;5092851;28;19908;-81
2024/01/03 13:32:17;;;;;;;;;;;19.10;99.90;;;;;;5092882;28;19908;-81
2024/01/03 13:34:43;;;;;;;;;;;18.90;99.90;;;;;;5094654;28;19923;-82
2024/01/03 13:37:09;;;;;;;;;;;18.80;99.90;;;;;;5094909;28;19920;-83
2024/01/03 13:39:35;;;;;;;;;;;18.90;99.90;;;;;;5096874;28;19912;-83
2024/01/03 13:42:02;;;;;;;;;;;18.80;99.90;;;;;;5095391;28;19923;-82
2024/01/03 13:44:28;;;;;;;;;;;18.60;99.90;;;;;;5094914;28;20420;-81
2024/01/03 13:46:54;;;;;;;;;;;18.50;99.90;;;;;;5095844;28;19991;-81
2024/01/03 13:49:21;;;;;;;;;;;18.50;99.90;;;;;;5096299;28;20341;-81
2024/01/03 13:51:48;;;;;;;;;;;18.40;99.90;;;;;;5095523;28;19919;-81
2024/01/03 13:54:14;;;;;;;;;;;18.40;99.90;;;;;;5093979;28;19939;-82
2024/01/03 13:56:40;;;;;;;;;;;18.30;99.90;;;;;;5095803;28;20076;-81
2024/01/03 13:59:08;;;;;;;;;;;18.20;99.90;;;;;;5094046;28;19958;-81
2024/01/03 14:01:34;;;;;;;;;;;18.20;99.90;;;;;;5095457;28;19915;-82
2024/01/03 14:04:00;;;;;;;;;;;18.20;99.90;;;;;;5095131;28;19908;-81
2024/01/03 14:06:25;;;;;;;;;;;18.10;99.90;;;;;;5095426;28;20007;-81
2024/01/03 14:08:51;;;;;;;;;;;18.10;99.90;;;;;;5095466;28;19908;-81
2024/01/03 14:11:19;;;;;;;;;;;18.10;99.90;;;;;;5093880;28;19944;-81